Portada
METAR-TAF:

METAR-TAF

Aeroports :

Calais, França

latitud: 50-57-39N, longitud: 001-57-05E, altitud: 4 m

Observació

L'informe es va fer fa 7 hores i 25 minuts, a les 20:00 UTC
Vent 22 kt del Nord/Nord-Est amb ràfegues de 32 kt
Temperatura 7°C
Humitat 70%
Pressió 1029 hPa
Visibilitat 10 km o més
Núvols disperses a una alçada de 2600 ft
Cel ennuvolat a una alçada de 3500 ft

METAR: LFAC 282000Z AUTO 03022G32KT 9999 SCT026 BKN035 07/02 Q1029

Hora: 05:25 (03:25 UTC)


TAF: manca

Observacions i pronòstics meteorològics de més de 4000 aeroports (METAR i TAF).

Les estacions disponibles són els punts grocs i vermells al mapa.

Posi el ratolí al punt desitjat per veure el nom de l'estació.

Feu clic per veure les observacions i els pronòstics meteorològics.

Per canviar el mapa: feu clic els botons verds amb una creu de color negre per apropar; al botó verd amb un guió per allunyar la imatge; o en les fletxes verdes per a mapes adjacents.


METAR-TAF: